Time;durP1;ratioP1;P1;durP2;ratioP2;P2;SDS_P1;SDS_P2;PMS_P1;PMS_P2;Temp;Humidity;BMP_temperature;BMP_pressure;BME280_temperature;BME280_humidity;BME280_pressure;Samples;Min_cycle;Max_cycle;Signal;HPM_P1;HPM_P2
2022/10/13 00:01:18;;;;;;;15.93;10.70;;;9.00;99.90;;;-141.84;84.61;18503.19;5110569;28;20247;-69
2022/10/13 00:03:47;;;;;;;15.23;10.73;;;9.00;99.90;;;-141.84;84.76;18462.56;5110246;28;20310;-70
2022/10/13 00:06:19;;;;;;;15.50;10.20;;;9.00;99.90;;;-141.84;84.82;18472.72;5110140;28;20235;-69
2022/10/13 00:08:47;;;;;;;12.43;10.43;;;9.00;99.90;;;-141.84;85.15;18454.44;5110638;28;20212;-68
2022/10/13 00:11:20;;;;;;;16.67;11.70;;;9.00;99.90;;;-141.84;85.36;18466.63;5114125;27;20218;-69
2022/10/13 00:13:49;;;;;;;15.97;11.30;;;9.00;99.90;;;-141.84;84.73;18468.66;5114622;28;20188;-69
2022/10/13 00:16:21;;;;;;;12.17;10.80;;;9.00;99.90;;;-141.84;84.67;18466.63;5114216;28;20563;-69
2022/10/13 00:18:50;;;;;;;16.10;11.20;;;9.00;99.90;;;-141.84;84.83;18421.91;5114020;28;20234;-69
2022/10/13 00:21:21;;;;;;;14.53;10.27;;;9.00;99.90;;;-141.84;85.08;18444.28;5113572;28;20235;-70
2022/10/13 00:23:51;;;;;;;18.77;11.67;;;9.00;99.90;;;-141.84;85.25;18417.84;5113631;27;20755;-69
2022/10/13 00:26:23;;;;;;;16.50;10.33;;;8.90;99.90;;;-141.84;85.45;18468.66;5113679;28;20227;-69
2022/10/13 00:28:52;;;;;;;14.83;10.30;;;8.90;99.90;;;-141.84;85.70;18468.66;5114354;28;20187;-69
2022/10/13 00:31:23;;;;;;;15.03;10.97;;;8.90;99.90;;;-141.84;85.68;18423.94;5114168;28;20214;-69
2022/10/13 00:33:52;;;;;;;17.67;12.00;;;8.90;99.90;;;-141.84;85.78;18423.94;5113678;28;20310;-69
2022/10/13 00:36:21;;;;;;;17.07;11.43;;;8.90;99.90;;;-141.84;85.84;18413.78;5113476;28;20313;-69
2022/10/13 00:38:50;;;;;;;13.87;11.17;;;8.90;99.90;;;-141.84;86.02;18434.13;5113641;28;20223;-69
2022/10/13 00:41:21;;;;;;;15.00;11.20;;;8.80;99.90;;;-141.84;85.94;18407.69;5113702;28;20223;-69
2022/10/13 00:44:01;;;;;;;15.33;11.57;;;8.80;99.90;;;-141.84;85.95;18395.50;5113815;28;20261;-69
2022/10/13 00:46:32;;;;;;;13.93;10.77;;;8.90;99.90;;;-141.84;85.90;18405.66;5113778;28;20223;-69
2022/10/13 00:49:06;;;;;;;15.83;11.50;;;8.90;99.90;;;-141.84;85.88;18403.63;5113212;28;20219;-69
2022/10/13 00:51:40;;;;;;;15.90;11.13;;;8.90;99.90;;;-141.84;85.65;18407.69;5113356;28;20229;-69
2022/10/13 00:54:13;;;;;;;14.80;11.67;;;9.00;99.90;;;-141.84;85.66;18438.19;5113035;27;20219;-69
2022/10/13 00:56:44;;;;;;;14.80;11.20;;;9.00;99.90;;;-141.84;85.67;18436.16;5113189;28;20727;-70
2022/10/13 00:59:21;;;;;;;15.67;11.80;;;9.10;99.90;;;-141.84;85.53;18444.28;5112766;28;20238;-69
2022/10/13 01:01:51;;;;;;;15.73;11.70;;;9.20;99.90;;;-141.84;85.24;18411.75;5113518;28;20550;-70
2022/10/13 01:04:23;;;;;;;14.83;10.80;;;9.20;99.90;;;-141.84;84.67;18421.91;5113410;28;20219;-67
2022/10/13 01:06:52;;;;;;;13.53;11.07;;;9.30;99.90;;;-141.84;84.36;18428.03;5113103;28;20219;-70
2022/10/13 01:09:20;;;;;;;12.87;11.53;;;9.40;99.90;;;-141.84;84.40;18448.34;5112848;28;20226;-70
2022/10/13 01:12:10;;;;;;;16.57;11.27;;;9.40;99.90;;;-141.84;83.93;18440.22;5112902;28;20215;-70
2022/10/13 01:14:49;;;;;;;13.63;9.83;;;9.40;99.90;;;-141.84;83.91;18423.94;5112790;28;20223;-68
2022/10/13 01:17:33;;;;;;;14.20;10.97;;;9.40;99.90;;;-141.84;83.94;18425.97;5113016;28;20280;-69
2022/10/13 01:20:31;;;;;;;17.80;11.17;;;9.40;99.90;;;-141.84;83.79;18391.44;5112585;28;20191;-69
2022/10/13 01:23:28;;;;;;;16.80;10.80;;;9.50;99.90;;;-141.84;83.30;18415.81;5112199;28;20635;-68
2022/10/13 01:26:26;;;;;;;14.57;10.33;;;9.50;99.90;;;-141.84;82.92;18425.97;5112511;28;20606;-67
2022/10/13 01:29:46;;;;;;;15.90;10.60;;;9.50;99.90;;;-141.84;82.99;18415.81;5112446;28;20195;-69
2022/10/13 01:32:29;;;;;;;21.50;11.90;;;9.50;99.90;;;-141.84;82.93;18440.22;5113056;28;20219;-68
2022/10/13 01:35:07;;;;;;;14.03;10.60;;;9.60;99.90;;;-141.84;82.40;18411.75;5112599;27;20184;-67
2022/10/13 01:37:45;;;;;;;14.00;11.10;;;9.60;99.90;;;-141.84;81.98;18450.38;5112965;28;20187;-69
2022/10/13 01:40:24;;;;;;;15.27;11.23;;;9.60;99.90;;;-141.84;81.99;18415.81;5112248;28;20266;-70
2022/10/13 01:43:01;;;;;;;13.90;11.30;;;9.50;99.90;;;-141.84;81.75;18454.44;5112316;28;20249;-68
2022/10/13 01:45:36;;;;;;;19.63;11.17;;;9.50;99.90;;;-141.84;81.67;18448.34;5112061;28;20235;-70
2022/10/13 01:48:08;;;;;;;15.03;11.53;;;9.60;99.90;;;-141.84;80.83;18460.53;5112071;28;20223;-70
2022/10/13 01:50:39;;;;;;;13.13;10.63;;;9.60;99.90;;;-141.84;81.73;18448.34;5112062;28;20223;-70
2022/10/13 01:53:08;;;;;;;16.07;11.93;;;9.60;99.90;;;-141.84;82.43;18428.03;5111843;28;20596;-68
2022/10/13 01:55:37;;;;;;;17.93;11.60;;;9.50;99.90;;;-141.84;82.53;18436.16;5112480;28;20568;-69
2022/10/13 01:58:05;;;;;;;18.03;11.87;;;9.50;99.90;;;-141.84;83.23;18415.81;5111724;28;20230;-69
2022/10/13 02:00:46;;;;;;;16.03;10.93;;;9.50;99.90;;;-141.84;83.71;18428.03;5111713;28;20222;-69
2022/10/13 02:03:26;;;;;;;15.33;11.37;;;9.40;99.90;;;-141.84;83.93;18403.63;5111942;28;20326;-69
2022/10/13 02:06:05;;;;;;;16.13;11.93;;;9.40;99.90;;;-141.84;83.87;18389.41;5111716;28;20230;-68
2022/10/13 02:08:44;;;;;;;13.33;11.10;;;9.40;99.90;;;-141.84;84.12;18399.56;5111823;28;20223;-68
2022/10/13 02:11:16;;;;;;;13.97;11.03;;;9.30;99.90;;;-141.84;84.52;18395.50;5111929;28;20226;-69
2022/10/13 02:13:53;;;;;;;18.47;11.80;;;9.30;99.90;;;-141.84;84.53;18377.22;5112400;28;20194;-67
2022/10/13 02:16:22;;;;;;;16.90;11.50;;;9.30;99.90;;;-141.84;84.64;18391.44;5112068;28;20210;-68
2022/10/13 02:18:53;;;;;;;16.03;11.60;;;9.30;99.90;;;-141.84;84.85;18405.66;5111376;28;20231;-69
2022/10/13 02:21:21;;;;;;;14.93;11.90;;;9.30;99.90;;;-141.84;84.60;18407.69;5111427;28;20353;-69
2022/10/13 02:23:49;;;;;;;17.53;11.67;;;9.30;99.90;;;-141.84;84.35;18403.63;5111221;28;20219;-67
2022/10/13 02:26:18;;;;;;;16.40;11.57;;;9.50;99.90;;;-141.84;84.15;18405.66;5111172;28;20273;-69
2022/10/13 02:28:46;;;;;;;19.90;12.60;;;9.40;99.90;;;-141.84;83.99;18405.66;5112106;28;20195;-69
2022/10/13 02:31:14;;;;;;;17.77;13.07;;;9.50;99.90;;;-141.84;83.85;18405.66;5111283;28;20250;-67
2022/10/13 02:33:42;;;;;;;18.67;12.43;;;9.50;99.90;;;-141.84;83.47;18401.59;5110284;28;20232;-68
2022/10/13 02:36:12;;;;;;;16.37;12.10;;;9.60;99.90;;;-141.84;82.82;18417.84;5111251;28;20227;-69
2022/10/13 02:38:40;;;;;;;13.90;11.07;;;9.70;99.90;;;-141.84;82.30;18428.03;5111112;28;20227;-69
2022/10/13 02:41:08;;;;;;;17.47;11.43;;;9.70;99.90;;;-141.84;82.38;18415.81;5111295;28;20200;-67
2022/10/13 02:43:37;;;;;;;14.97;11.77;;;9.70;99.90;;;-141.84;81.74;18428.03;5112174;28;20543;-70
2022/10/13 02:46:05;;;;;;;16.30;11.47;;;9.90;99.90;;;-141.84;81.12;18448.34;5111091;28;20230;-69
2022/10/13 02:48:34;;;;;;;15.03;11.60;;;9.90;99.90;;;-141.84;80.83;18428.03;5111183;28;20733;-69
2022/10/13 02:51:02;;;;;;;20.03;12.97;;;9.90;99.90;;;-141.84;80.84;18482.88;5111159;28;20230;-68
2022/10/13 02:53:31;;;;;;;16.43;12.03;;;9.90;99.90;;;-141.84;79.61;18450.38;5111319;27;20226;-68
2022/10/13 02:55:59;;;;;;;14.13;11.53;;;9.90;99.90;;;-141.84;79.97;18462.56;5111289;28;20253;-67
2022/10/13 02:58:27;;;;;;;14.90;11.33;;;10.00;99.90;;;-141.84;78.72;18468.66;5111394;28;20284;-68
2022/10/13 03:00:55;;;;;;;14.90;11.17;;;10.10;99.90;;;-141.84;79.42;18495.06;5110938;28;20227;-69
2022/10/13 03:03:23;;;;;;;15.07;11.33;;;10.00;99.90;;;-141.84;80.16;18460.53;5110907;28;20718;-69
2022/10/13 03:05:51;;;;;;;15.23;11.33;;;10.00;99.90;;;-141.84;80.54;18448.34;5110949;28;20218;-69
2022/10/13 03:08:19;;;;;;;20.23;12.57;;;9.90;99.90;;;-141.84;79.83;18458.50;5111258;28;20449;-68
2022/10/13 03:10:49;;;;;;;14.80;10.93;;;9.90;99.90;;;-141.84;80.52;18454.44;5111197;28;20575;-69
2022/10/13 03:13:17;;;;;;;15.27;11.20;;;9.80;99.90;;;-141.84;81.50;18425.97;5111408;28;20242;-68
2022/10/13 03:15:46;;;;;;;15.90;12.00;;;9.80;99.90;;;-141.84;81.00;18428.03;5110455;28;20275;-69
2022/10/13 03:18:14;;;;;;;16.13;11.30;;;9.80;99.90;;;-141.84;81.66;18428.03;5110573;28;20223;-70
2022/10/13 03:20:42;;;;;;;16.40;11.47;;;9.70;99.90;;;-141.84;82.22;18419.88;5110622;28;20219;-68
2022/10/13 03:23:11;;;;;;;17.97;11.77;;;9.60;99.90;;;-141.84;82.69;18419.88;5110818;28;20204;-68
2022/10/13 03:25:39;;;;;;;16.17;11.80;;;9.50;99.90;;;-141.84;83.07;18383.31;5111316;28;20215;-69
2022/10/13 03:28:08;;;;;;;14.23;11.03;;;9.50;99.90;;;-141.84;83.70;18354.88;5110700;28;20310;-67
2022/10/13 03:30:36;;;;;;;15.23;11.20;;;9.30;99.90;;;-141.84;84.09;18358.94;5110507;28;20234;-69
2022/10/13 03:33:05;;;;;;;15.00;11.13;;;9.30;99.90;;;-141.84;84.60;18391.44;5110944;28;20272;-67
2022/10/13 03:35:33;;;;;;;16.67;11.77;;;9.20;99.90;;;-141.84;85.04;18336.59;5110513;28;20219;-68
2022/10/13 03:38:01;;;;;;;16.23;12.37;;;9.20;99.90;;;-141.84;85.53;18322.38;5110760;28;20200;-70
2022/10/13 03:40:29;;;;;;;17.20;12.47;;;9.10;99.90;;;-141.84;86.02;18363.00;5111069;28;20227;-70
2022/10/13 03:42:57;;;;;;;15.47;11.77;;;9.00;99.90;;;-141.84;86.40;18336.59;5110698;28;20223;-70
2022/10/13 03:45:27;;;;;;;17.63;12.57;;;9.00;99.90;;;-141.84;86.87;18289.88;5112994;28;20586;-70
2022/10/13 03:47:55;;;;;;;16.03;12.73;;;9.00;99.90;;;-141.84;87.44;18306.13;5114525;28;20709;-69
2022/10/13 03:50:23;;;;;;;19.57;13.60;;;8.90;99.90;;;-141.84;87.04;18350.81;5113939;27;20595;-69
2022/10/13 03:52:51;;;;;;;19.00;14.00;;;9.10;99.90;;;-141.84;86.08;18350.81;5115098;28;20203;-69
2022/10/13 03:55:19;;;;;;;16.37;12.57;;;9.10;99.90;;;-141.84;86.23;18306.13;5114374;28;20226;-69
2022/10/13 03:57:47;;;;;;;16.07;12.77;;;9.10;99.90;;;-141.84;86.98;18273.63;5114146;28;20227;-68
2022/10/13 04:00:16;;;;;;;18.17;13.13;;;9.00;99.90;;;-141.84;87.20;18312.22;5113839;28;20227;-68
2022/10/13 04:02:49;;;;;;;17.37;13.03;;;9.00;99.90;;;-141.84;87.33;18293.94;5114137;28;20223;-69
2022/10/13 04:05:17;;;;;;;17.70;13.87;;;9.00;99.90;;;-141.84;87.74;18285.81;5113764;28;20230;-69
2022/10/13 04:07:45;;;;;;;20.00;14.03;;;9.00;99.90;;;-141.84;87.68;18324.41;5114925;28;20208;-68
2022/10/13 04:10:13;;;;;;;20.70;14.07;;;9.00;99.90;;;-141.84;87.33;18302.06;5114032;28;20590;-68
2022/10/13 04:12:41;;;;;;;21.00;14.30;;;9.00;99.90;;;-141.84;86.94;18318.31;5114065;28;20664;-70
2022/10/13 04:15:10;;;;;;;18.50;13.67;;;9.10;99.90;;;-141.84;86.96;18314.25;5113643;28;20235;-68
2022/10/13 04:17:38;;;;;;;21.60;14.63;;;9.10;99.90;;;-141.84;86.85;18298.00;5114103;28;20230;-69
2022/10/13 04:20:09;;;;;;;20.77;13.90;;;9.10;99.90;;;-141.84;87.08;18298.00;5113855;28;20230;-69
2022/10/13 04:22:38;;;;;;;19.10;14.67;;;9.10;99.90;;;-141.84;86.87;18318.31;5114476;28;20191;-68
2022/10/13 04:25:07;;;;;;;19.07;13.97;;;9.20;99.90;;;-141.84;87.10;18289.88;5113491;28;20227;-71
2022/10/13 04:27:38;;;;;;;20.03;13.93;;;9.20;99.90;;;-141.84;86.70;18350.81;5113612;28;20247;-68
2022/10/13 04:30:08;;;;;;;18.73;14.30;;;9.20;99.90;;;-141.84;86.05;18332.53;5113795;28;20227;-68
2022/10/13 04:32:40;;;;;;;18.20;14.80;;;9.30;99.90;;;-141.84;84.09;18338.63;5113491;28;20315;-68
2022/10/13 04:35:10;;;;;;;17.60;14.07;;;9.40;99.90;;;-141.84;83.68;18356.91;5113618;28;20203;-70
2022/10/13 04:37:38;;;;;;;20.83;14.07;;;9.50;99.90;;;-141.84;84.02;18340.66;5114150;28;20207;-69
2022/10/13 04:40:12;;;;;;;19.17;14.17;;;9.50;99.90;;;-141.84;83.66;18371.13;5113244;28;20264;-71
2022/10/13 04:42:40;;;;;;;23.87;15.40;;;9.60;99.90;;;-141.84;82.53;18332.53;5113312;28;20230;-69
2022/10/13 04:45:09;;;;;;;18.23;13.63;;;9.70;99.90;;;-141.84;82.18;18358.94;5113149;28;20678;-69
2022/10/13 04:47:38;;;;;;;21.10;15.23;;;9.70;99.90;;;-141.84;82.85;18334.56;5113354;28;20231;-69
2022/10/13 04:50:08;;;;;;;17.67;13.53;;;9.70;99.90;;;-141.84;83.34;18369.09;5113138;28;20203;-69
2022/10/13 04:52:37;;;;;;;22.03;14.13;;;9.80;99.90;;;-141.84;83.38;18365.03;5113743;28;20195;-70
2022/10/13 04:55:06;;;;;;;18.77;13.60;;;9.80;99.90;;;-141.84;83.07;18340.66;5112884;28;20238;-70
2022/10/13 04:57:34;;;;;;;15.27;12.87;;;9.80;99.90;;;-141.84;83.29;18354.88;5112221;28;20741;-70
2022/10/13 05:00:03;;;;;;;17.67;13.97;;;9.80;99.90;;;-141.84;82.85;18375.19;5113119;28;20705;-71
2022/10/13 05:02:31;;;;;;;18.17;14.10;;;9.80;99.90;;;-141.84;81.76;18387.38;5112892;28;20649;-69
2022/10/13 05:04:59;;;;;;;19.50;13.83;;;9.90;99.90;;;-141.84;80.64;18379.25;5113200;27;20257;-71
2022/10/13 05:07:30;;;;;;;19.33;14.20;;;9.90;99.90;;;-141.84;81.04;18383.31;5113219;28;20210;-69
2022/10/13 05:09:58;;;;;;;19.40;13.87;;;10.00;99.90;;;-141.84;81.44;18369.09;5113192;28;20315;-69
2022/10/13 05:12:26;;;;;;;21.37;14.53;;;10.00;99.90;;;-141.84;82.11;18409.72;5112861;28;20226;-69
2022/10/13 05:14:54;;;;;;;21.60;14.80;;;10.00;99.90;;;-141.84;81.20;18387.38;5112784;27;20234;-72
2022/10/13 05:17:22;;;;;;;18.10;13.90;;;10.10;99.90;;;-141.84;81.79;18401.59;5112733;28;20234;-69
2022/10/13 05:19:50;;;;;;;18.23;14.20;;;10.10;99.90;;;-141.84;82.05;18393.47;5113278;28;20237;-70
2022/10/13 05:22:18;;;;;;;23.27;14.40;;;10.20;99.90;;;-141.84;81.07;18389.41;5112290;28;20246;-68
2022/10/13 05:24:48;;;;;;;23.10;15.47;;;10.10;99.90;;;-141.84;81.29;18403.63;5112381;28;20231;-69
2022/10/13 05:27:16;;;;;;;22.73;15.43;;;10.20;99.90;;;-141.84;80.99;18407.69;5112124;28;20280;-69
2022/10/13 05:29:44;;;;;;;20.23;15.27;;;10.20;99.90;;;-141.84;81.38;18411.75;5112327;28;20215;-70
2022/10/13 05:32:12;;;;;;;16.97;14.27;;;10.20;99.90;;;-141.84;82.11;18415.81;5112766;28;20227;-69
2022/10/13 05:34:40;;;;;;;25.30;15.33;;;10.20;99.90;;;-141.84;82.56;18365.03;5112760;28;20229;-70
2022/10/13 05:37:08;;;;;;;20.33;15.00;;;10.20;99.90;;;-141.84;82.67;18401.59;5112471;28;20599;-67
2022/10/13 05:39:36;;;;;;;19.17;14.73;;;10.20;99.90;;;-141.84;81.86;18397.53;5112378;28;20234;-69
2022/10/13 05:42:06;;;;;;;20.63;14.23;;;10.30;99.90;;;-141.84;81.80;18423.94;5111994;28;20215;-71
2022/10/13 05:44:35;;;;;;;18.97;15.17;;;10.30;99.90;;;-141.84;82.30;18385.34;5111960;28;20223;-71
2022/10/13 05:47:03;;;;;;;23.80;16.27;;;10.30;99.90;;;-141.84;82.04;18403.63;5112007;28;20207;-72
2022/10/13 05:49:38;;;;;;;21.43;15.00;;;10.30;99.90;;;-141.84;81.21;18411.75;5112614;28;20191;-71
2022/10/13 05:52:11;;;;;;;21.67;16.17;;;10.30;99.90;;;-141.84;81.06;18381.28;5111839;28;20224;-69
2022/10/13 05:54:45;;;;;;;24.13;16.40;;;10.30;99.90;;;-141.84;80.64;18442.25;5111570;27;20702;-70
2022/10/13 05:57:22;;;;;;;22.00;15.60;;;10.40;99.90;;;-141.84;80.76;18425.97;5111961;27;20233;-71
2022/10/13 05:59:57;;;;;;;19.30;14.90;;;10.40;99.90;;;-141.84;81.21;18425.97;5111795;28;20221;-72
2022/10/13 06:02:33;;;;;;;19.00;14.70;;;10.40;99.90;;;-141.84;81.60;18432.09;5112033;27;20219;-70
2022/10/13 06:05:07;;;;;;;25.30;15.70;;;10.50;99.90;;;-141.84;81.65;18411.75;5111938;28;20206;-69
2022/10/13 06:07:35;;;;;;;20.70;15.40;;;10.50;99.90;;;-141.84;81.60;18425.97;5112249;28;20195;-71
2022/10/13 06:10:04;;;;;;;23.77;15.97;;;10.60;99.90;;;-141.84;81.48;18425.97;5111685;28;20227;-70
2022/10/13 06:12:33;;;;;;;20.80;15.23;;;10.60;99.90;;;-141.84;81.52;18450.38;5111725;28;20230;-70
2022/10/13 06:15:01;;;;;;;23.93;15.80;;;10.60;99.90;;;-141.84;80.88;18448.34;5111708;28;20272;-70
2022/10/13 06:17:29;;;;;;;21.87;15.10;;;10.70;99.90;;;-141.84;80.44;18462.56;5111439;28;20832;-70
2022/10/13 06:19:58;;;;;;;17.23;13.90;;;10.80;99.90;;;-141.84;80.84;18446.31;5111485;27;20207;-69
2022/10/13 06:22:26;;;;;;;17.17;13.77;;;10.80;99.90;;;-141.84;80.93;18458.50;5111878;28;20667;-70
2022/10/13 06:24:54;;;;;;;17.37;13.70;;;10.90;99.90;;;-141.84;81.24;18444.28;5111296;28;20227;-69
2022/10/13 06:27:22;;;;;;;19.10;15.90;;;11.00;99.90;;;-141.84;80.92;18480.84;5111390;28;20228;-70
2022/10/13 06:29:52;;;;;;;21.83;16.10;;;11.00;99.90;;;-141.84;79.92;18503.19;5111260;28;20229;-71
2022/10/13 06:32:20;;;;;;;22.73;16.03;;;11.20;99.90;;;-141.84;78.32;18533.66;5111430;28;20215;-71
2022/10/13 06:34:49;;;;;;;20.90;16.70;;;11.30;99.90;;;-141.84;77.69;18556.00;5111832;28;20552;-71
2022/10/13 06:37:17;;;;;;;21.70;15.33;;;11.40;99.90;;;-141.84;75.19;18639.31;5111099;28;20223;-72
2022/10/13 06:39:48;;;;;;;21.83;15.53;;;11.60;99.90;;;-141.84;73.24;18720.59;5111243;28;20238;-71
2022/10/13 06:42:16;;;;;;;21.57;16.23;;;11.80;99.90;;;-141.84;73.43;18722.63;5110875;28;20235;-72
2022/10/13 06:44:44;;;;;;;20.03;15.73;;;12.00;99.90;;;-141.84;74.29;18669.78;5111012;28;20226;-71
2022/10/13 06:47:14;;;;;;;20.47;16.20;;;12.10;99.90;;;-141.84;74.25;18708.41;5111767;28;20227;-71
2022/10/13 06:49:42;;;;;;;20.73;16.00;;;12.10;99.90;;;-141.84;72.70;18749.03;5111625;28;20203;-71
2022/10/13 06:52:10;;;;;;;21.50;15.47;;;12.20;99.90;;;-141.84;73.17;18773.41;5111066;28;20219;-71
2022/10/13 06:54:38;;;;;;;24.37;16.37;;;12.30;99.90;;;-141.84;73.55;18777.47;5110571;28;20774;-70
2022/10/13 06:57:06;;;;;;;24.47;16.37;;;12.40;99.90;;;-141.84;73.27;18785.59;5111098;28;20226;-71
2022/10/13 06:59:34;;;;;;;22.47;15.93;;;12.40;99.90;;;-141.84;73.17;18775.44;5110785;28;20268;-71
2022/10/13 07:02:02;;;;;;;22.77;16.33;;;12.40;99.90;;;-141.84;72.70;18783.56;5111018;28;20694;-70
2022/10/13 07:04:32;;;;;;;21.70;15.23;;;12.40;99.90;;;-141.84;72.91;18759.19;5111062;28;20234;-71
2022/10/13 07:07:00;;;;;;;25.77;17.20;;;12.40;99.90;;;-141.84;73.88;18734.81;5110658;28;20249;-71
2022/10/13 07:09:28;;;;;;;19.70;15.43;;;12.30;99.90;;;-141.84;74.57;18712.47;5110816;28;20235;-72
2022/10/13 07:11:56;;;;;;;22.30;15.63;;;12.20;99.90;;;-141.84;75.39;18708.41;5110447;28;20257;-71
2022/10/13 07:14:24;;;;;;;24.27;16.73;;;12.10;99.90;;;-141.84;74.88;18696.19;5110387;28;20288;-70
2022/10/13 07:16:52;;;;;;;24.03;17.17;;;12.20;99.90;;;-141.84;74.83;18738.88;5111231;28;20203;-70
2022/10/13 07:19:20;;;;;;;22.37;15.93;;;12.30;99.90;;;-141.84;74.56;18747.00;5111254;28;20210;-71
2022/10/13 07:21:50;;;;;;;23.50;16.97;;;12.50;99.90;;;-141.84;73.34;18787.63;5113720;28;20231;-71
2022/10/13 07:24:18;;;;;;;22.63;15.93;;;12.50;99.90;;;-141.84;72.63;18838.44;5114513;27;20233;-74
2022/10/13 07:26:46;;;;;;;23.00;15.70;;;12.70;99.90;;;-141.84;72.44;18832.34;5114034;28;20223;-72
2022/10/13 07:29:15;;;;;;;24.43;15.87;;;12.80;99.90;;;-141.84;72.32;18858.75;5114630;28;20718;-69
2022/10/13 07:31:43;;;;;;;23.03;16.10;;;12.90;99.90;;;-141.84;72.29;18850.63;5115300;28;20689;-71
2022/10/13 07:34:12;;;;;;;24.17;16.45;;;13.00;99.90;;;-141.84;71.90;18881.09;5114654;28;20223;-71
2022/10/13 07:36:40;;;;;;;23.02;16.83;;;13.00;99.90;;;-141.84;71.68;18860.78;5114593;28;20283;-71
2022/10/13 07:39:10;;;;;;;20.38;15.82;;;12.90;99.90;;;-141.84;71.94;18854.69;5114411;28;20223;-70
2022/10/13 07:41:38;;;;;;;24.40;16.58;;;12.90;99.90;;;-141.84;71.15;18911.56;5114292;28;20227;-70
2022/10/13 07:44:06;;;;;;;22.57;16.40;;;13.00;99.90;;;-141.84;71.47;18905.47;5114635;28;20199;-71
2022/10/13 07:46:34;;;;;;;23.67;16.10;;;13.00;99.90;;;-141.84;70.79;18998.94;5114972;28;20200;-71
2022/10/13 07:49:02;;;;;;;24.42;15.85;;;13.00;99.90;;;-141.84;71.27;18944.09;5114111;27;20714;-70
2022/10/13 07:51:30;;;;;;;21.60;17.17;;;13.10;99.90;;;-141.84;70.97;18948.16;5114424;28;20235;-70
2022/10/13 07:53:58;;;;;;;24.33;16.55;;;13.20;99.90;;;-141.84;69.80;19003.00;5113732;28;20235;-70
2022/10/13 07:56:27;;;;;;;22.42;17.20;;;13.30;99.90;;;-141.84;68.74;19066.00;5114457;28;20649;-70
2022/10/13 07:58:55;;;;;;;23.30;16.52;;;13.40;99.90;;;-141.84;68.04;19129.00;5114859;28;20207;-70
2022/10/13 08:01:24;;;;;;;24.20;16.17;;;13.70;99.90;;;-141.84;68.01;19135.09;5115038;28;20605;-71
2022/10/13 08:03:55;;;;;;;24.45;16.88;;;13.80;99.90;;;-141.84;67.53;19165.56;5113891;28;20218;-70
2022/10/13 08:06:24;;;;;;;22.67;16.40;;;13.90;99.90;;;-141.84;67.08;19214.34;5114344;28;20223;-70
2022/10/13 08:08:52;;;;;;;21.83;16.60;;;14.00;99.90;;;-141.84;67.03;19216.38;5114427;28;20215;-70
2022/10/13 08:11:20;;;;;;;22.33;16.13;;;14.10;99.90;;;-141.84;67.46;19226.53;5114374;28;20226;-71
2022/10/13 08:13:52;;;;;;;25.58;16.48;;;14.10;99.90;;;-141.84;67.61;19259.03;5114642;28;20199;-70
2022/10/13 08:16:21;;;;;;;24.50;16.25;;;14.20;99.90;;;-141.84;66.01;19358.63;5114969;28;20207;-70
2022/10/13 08:18:49;;;;;;;20.27;15.55;;;14.40;99.90;;;-141.84;65.04;19496.81;5114506;28;20230;-70
2022/10/13 08:21:21;;;;;;;22.50;17.38;;;14.60;99.90;;;-141.84;65.51;19456.16;5114228;28;20246;-70
2022/10/13 08:24:13;;;;;;;21.95;16.67;;;14.70;99.90;;;-141.84;64.76;19535.41;5114091;28;20223;-70
2022/10/13 08:26:42;;;;;;;24.33;16.73;;;14.80;99.90;;;-141.84;64.45;19561.84;5115456;28;20238;-71
2022/10/13 08:29:12;;;;;;;25.33;17.50;;;14.90;99.90;;;-141.84;64.40;19578.09;5116201;28;20214;-72
2022/10/13 08:31:49;;;;;;;20.90;16.25;;;14.90;99.90;;;-141.84;64.49;19543.53;5116749;28;20278;-68
2022/10/13 08:34:18;;;;;;;23.33;17.05;;;15.00;99.90;;;-141.84;64.84;19535.41;5115830;28;20283;-70
2022/10/13 08:36:46;;;;;;;19.50;15.00;;;14.90;99.90;;;-141.84;64.57;19588.25;5115356;28;20226;-70
2022/10/13 08:39:14;;;;;;;22.98;16.25;;;15.00;99.90;;;-141.84;64.27;19616.72;5113997;28;20309;-69
2022/10/13 08:41:44;;;;;;;21.27;15.43;;;15.10;99.90;;;-141.84;63.59;19681.75;5113615;28;20581;-69
2022/10/13 08:44:24;;;;;;;23.20;14.95;;;15.20;99.90;;;-141.84;63.61;19742.72;5113884;28;20231;-73
2022/10/13 08:47:24;;;;;;;22.27;14.85;;;15.40;99.90;;;-141.84;62.11;19899.19;5113329;28;20747;-71
2022/10/13 08:49:52;;;;;;;22.95;15.60;;;15.60;99.90;;;-141.84;62.58;19854.50;5114094;28;20186;-69
2022/10/13 08:52:42;;;;;;;20.02;15.50;;;15.60;99.90;;;-141.84;62.30;19911.41;5115641;28;20175;-71
2022/10/13 08:55:23;;;;;;;23.60;15.52;;;15.70;99.90;;;-141.84;62.42;19909.34;5113292;27;20226;-71
2022/10/13 08:57:51;;;;;;;25.80;16.90;;;15.80;99.90;;;-141.84;61.75;20002.84;5113466;28;20704;-70
2022/10/13 09:00:21;;;;;;;22.20;16.80;;;15.80;99.90;;;-141.84;61.99;19976.44;5113335;28;20223;-70
2022/10/13 09:02:51;;;;;;;24.65;16.27;;;15.80;99.90;;;-141.84;61.64;20010.97;5113612;28;20340;-73
2022/10/13 09:05:55;;;;;;;24.75;15.93;;;15.90;99.90;;;-141.84;61.70;20017.09;5113453;28;20736;-69
2022/10/13 09:08:31;;;;;;;20.85;15.68;;;16.00;99.90;;;-141.84;61.27;20061.78;5113343;28;20287;-70
2022/10/13 09:10:59;;;;;;;21.23;15.60;;;16.10;99.90;;;-141.84;61.25;20076.03;5112790;28;20639;-70
2022/10/13 09:13:27;;;;;;;24.35;15.52;;;16.00;99.90;;;-141.84;61.34;20031.31;5113667;28;20199;-70
2022/10/13 09:15:58;;;;;;;24.00;15.25;;;16.10;99.90;;;-141.84;61.74;20057.72;5112943;28;20256;-70
2022/10/13 09:18:31;;;;;;;19.63;15.77;;;16.00;99.90;;;-141.84;61.76;20043.50;5112925;28;20300;-70
2022/10/13 09:21:26;;;;;;;24.13;16.02;;;16.00;99.90;;;-141.84;61.93;20025.22;5112741;27;20219;-70
2022/10/13 09:24:08;;;;;;;21.90;15.40;;;16.00;99.90;;;-141.84;62.45;20000.81;5065092;28;20215;-71
2022/10/13 09:26:39;;;;;;;19.20;15.70;;;15.90;99.90;;;-141.84;62.48;19986.59;5112601;28;20726;-71
2022/10/13 09:29:17;;;;;;;23.00;15.65;;;15.80;99.90;;;-141.84;62.32;20017.09;5112783;27;20199;-70
2022/10/13 09:31:47;;;;;;;23.75;16.35;;;15.90;99.90;;;-141.84;61.71;20063.81;5112758;28;20184;-71
2022/10/13 09:34:25;;;;;;;21.45;15.93;;;15.90;99.90;;;-141.84;61.53;20092.28;5112747;28;20223;-70
2022/10/13 09:37:02;;;;;;;23.77;15.43;;;15.90;99.90;;;-141.84;61.70;20065.84;5112488;28;20483;-71
2022/10/13 09:39:32;;;;;;;20.25;14.77;;;16.10;99.90;;;-141.84;61.05;20165.44;5112459;28;20226;-71
2022/10/13 09:42:23;;;;;;;19.35;14.88;;;16.20;99.90;;;-141.84;60.92;20173.59;5112068;28;20231;-72
2022/10/13 09:45:12;;;;;;;24.15;16.00;;;16.30;99.90;;;-141.84;60.56;20214.22;5112361;28;20226;-69
2022/10/13 09:47:50;;;;;;;19.55;16.05;;;16.40;99.90;;;-141.84;61.15;20165.44;5112159;28;20741;-71
2022/10/13 09:50:22;;;;;;;22.20;16.50;;;16.40;99.90;;;-141.84;60.70;20220.34;5112481;28;20464;-72
2022/10/13 09:52:51;;;;;;;22.38;15.82;;;16.40;99.90;;;-141.84;60.91;20195.94;5112880;28;20176;-71
2022/10/13 09:55:33;;;;;;;27.38;16.95;;;16.60;99.90;;;-141.84;60.42;20250.81;5112763;28;20231;-72
2022/10/13 09:58:10;;;;;;;20.80;15.40;;;16.60;99.90;;;-141.84;59.41;20348.38;5112315;28;20223;-72
2022/10/13 10:00:40;;;;;;;22.77;16.45;;;16.70;99.90;;;-141.84;58.43;20411.41;5112044;28;20231;-71
2022/10/13 10:03:17;;;;;;;23.48;15.30;;;16.90;99.90;;;-141.84;58.33;20462.22;5112176;28;20231;-72
2022/10/13 10:05:52;;;;;;;24.88;16.17;;;17.00;99.90;;;-141.84;58.93;20413.44;5112295;28;20211;-71
2022/10/13 10:08:26;;;;;;;23.40;16.85;;;17.00;99.90;;;-141.84;58.28;20494.75;5112178;28;20228;-70
2022/10/13 10:11:13;;;;;;;21.00;15.50;;;17.00;99.90;;;-141.84;58.64;20454.09;5112341;28;20295;-70
2022/10/13 10:13:41;;;;;;;22.33;15.50;;;17.00;99.90;;;-141.84;58.81;20474.41;5111423;28;20183;-70